Time;durP1;ratioP1;P1;durP2;ratioP2;P2;SDS_P1;SDS_P2;PMS_P1;PMS_P2;Temp;Humidity;BMP_temperature;BMP_pressure;BME280_temperature;BME280_humidity;BME280_pressure;Samples;Min_cycle;Max_cycle;Signal;HPM_P1;HPM_P2
2022/02/05 07:44:47;;;;;;;5.53;3.17;;;;;;;0.59;100.00;99736.72;5146944;27;20360;-83
2022/02/05 07:47:16;;;;;;;6.20;3.13;;;;;;;0.76;100.00;99750.75;5149600;27;20047;-84
2022/02/05 07:49:43;;;;;;;4.60;3.10;;;;;;;0.93;100.00;99750.38;5149688;27;20042;-83
2022/02/05 07:52:10;;;;;;;6.10;3.15;;;;;;;1.06;100.00;99747.69;5149226;27;20300;-83
2022/02/05 07:54:38;;;;;;;5.32;3.30;;;;;;;1.18;100.00;99748.66;5148505;27;20055;-83
2022/02/05 07:57:05;;;;;;;9.45;3.38;;;;;;;1.25;100.00;99739.22;5148651;27;20035;-84
2022/02/05 07:59:32;;;;;;;8.23;4.05;;;;;;;1.39;100.00;99743.56;5148963;27;20070;-84
2022/02/05 08:02:00;;;;;;;12.90;3.65;;;;;;;1.45;100.00;99747.63;5147422;27;20129;-84
2022/02/05 08:04:27;;;;;;;9.48;4.13;;;;;;;1.48;100.00;99750.91;5140926;27;20453;-83
2022/02/05 08:06:55;;;;;;;16.92;5.60;;;;;;;1.54;100.00;99757.66;5148841;27;20039;-84
2022/02/05 08:09:29;;;;;;;10.88;3.80;;;;;;;1.57;100.00;99766.31;5150219;27;20401;-84
2022/02/05 08:12:03;;;;;;;8.10;3.75;;;;;;;1.70;100.00;99765.41;5149375;27;20104;-84
2022/02/05 08:14:33;;;;;;;6.05;2.90;;;;;;;1.77;100.00;99764.84;5149205;27;20053;-84
2022/02/05 08:17:04;;;;;;;10.65;3.40;;;;;;;1.81;100.00;99760.13;5149903;27;20069;-84
2022/02/05 08:19:31;;;;;;;5.50;2.72;;;;;;;1.84;100.00;99762.56;5150569;27;20047;-84
2022/02/05 08:21:58;;;;;;;6.05;2.92;;;;;;;1.72;100.00;99744.72;5149312;27;20445;-84
2022/02/05 08:24:24;;;;;;;8.20;2.85;;;;;;;1.86;100.00;99767.81;5143865;27;20399;-84
2022/02/05 08:26:51;;;;;;;6.22;2.50;;;;;;;2.00;100.00;99766.78;5150388;27;20429;-84
2022/02/05 08:29:20;;;;;;;6.68;2.75;;;;;;;1.97;100.00;99767.00;5150059;27;20552;-84
2022/02/05 08:31:46;;;;;;;8.73;2.67;;;;;;;2.00;100.00;99764.09;5150390;27;20075;-84
2022/02/05 08:34:15;;;;;;;3.70;2.15;;;;;;;2.08;100.00;99762.56;5149178;27;20070;-84
2022/02/05 08:36:49;;;;;;;12.18;2.40;;;;;;;2.14;100.00;99771.97;5132746;27;20051;-84
2022/02/05 08:39:17;;;;;;;10.10;3.00;;;;;;;2.15;100.00;99770.97;5142150;27;20125;-84
2022/02/05 08:41:45;;;;;;;8.57;2.40;;;;;;;2.20;100.00;99773.31;5147932;27;20078;-84
2022/02/05 08:44:12;;;;;;;7.07;2.90;;;;;;;2.21;100.00;99773.19;5144529;27;20055;-84
2022/02/05 08:46:38;;;;;;;9.30;2.50;;;;;;;2.22;100.00;99785.63;5145857;27;20054;-84
2022/02/05 08:49:05;;;;;;;10.32;3.08;;;;;;;2.22;100.00;99774.06;5148895;27;20046;-84
2022/02/05 08:51:34;;;;;;;5.60;3.05;;;;;;;2.30;100.00;99793.97;5145735;27;20106;-84
2022/02/05 08:54:01;;;;;;;10.85;3.00;;;;;;;2.40;100.00;99790.59;5141372;27;20047;-84
2022/02/05 08:56:28;;;;;;;7.15;2.50;;;;;;;2.29;100.00;99780.69;5132855;27;20556;-84
2022/02/05 08:58:57;;;;;;;7.72;2.55;;;;;;;2.45;100.00;99793.75;5134672;27;20086;-84
2022/02/05 09:01:28;;;;;;;5.97;2.20;;;;;;;2.37;100.00;99769.34;5134757;27;20044;-85
2022/02/05 09:04:02;;;;;;;9.38;2.85;;;;;;;2.59;100.00;99773.91;5133210;27;20078;-84
2022/02/05 09:06:33;;;;;;;5.65;2.15;;;;;;;2.54;100.00;99755.47;5129455;27;20047;-84
2022/02/05 09:09:10;;;;;;;8.45;2.10;;;;;;;2.68;100.00;99773.22;5128114;27;20047;-84
2022/02/05 09:11:43;;;;;;;6.00;2.03;;;;;;;2.73;100.00;99771.00;5124501;27;20082;-84
2022/02/05 09:14:28;;;;;;;6.72;2.40;;;;;;;2.75;100.00;99776.25;5115066;27;20059;-85
2022/02/05 09:16:55;;;;;;;7.53;2.05;;;;;;;2.87;100.00;99772.63;5122678;27;20051;-84
2022/02/05 09:19:21;;;;;;;11.88;2.45;;;;;;;2.96;100.00;99779.09;5132326;27;20043;-85
2022/02/05 09:21:48;;;;;;;8.90;2.20;;;;;;;2.97;100.00;99778.97;5129471;27;20047;-85
2022/02/05 09:24:16;;;;;;;8.40;2.80;;;;;;;3.03;100.00;99790.19;5121814;27;20059;-84
2022/02/05 09:26:47;;;;;;;8.60;1.92;;;;;;;2.99;100.00;99778.84;5118398;27;20051;-85
2022/02/05 09:29:19;;;;;;;6.50;2.28;;;;;;;3.14;100.00;99790.22;5121026;27;20050;-84
2022/02/05 09:31:46;;;;;;;8.68;2.15;;;;;;;3.10;100.00;99797.69;5123298;27;20454;-85
2022/02/05 09:34:12;;;;;;;5.80;1.83;;;;;;;3.01;100.00;99784.94;5114632;28;20043;-84
2022/02/05 09:36:40;;;;;;;8.52;3.00;;;;;;;3.08;100.00;99791.56;5119711;27;20134;-83
2022/02/05 09:39:12;;;;;;;9.13;3.72;;;;;;;3.26;100.00;99799.13;5114387;27;20047;-84
2022/02/05 09:41:48;;;;;;;5.28;2.30;;;;;;;3.33;100.00;99793.16;5114984;27;20051;-85
2022/02/05 09:44:36;;;;;;;8.15;4.10;;;;;;;3.51;100.00;99801.56;5121314;27;20037;-83
2022/02/05 09:47:03;;;;;;;6.43;2.22;;;;;;;3.45;100.00;99791.31;5129062;27;20047;-86
2022/02/05 09:49:31;;;;;;;7.75;2.20;;;;;;;3.49;100.00;99786.53;5126579;27;20470;-84
2022/02/05 09:52:08;;;;;;;8.98;3.42;;;;;;;3.59;100.00;99783.97;5127419;27;20046;-83
2022/02/05 09:54:41;;;;;;;8.80;2.50;;;;;;;3.68;100.00;99785.88;5125646;27;20066;-83
2022/02/05 09:57:10;;;;;;;8.07;3.10;;;;;;;3.87;99.20;99788.78;5115208;27;20525;-84
2022/02/05 09:59:40;;;;;;;7.10;2.00;;;;;;;3.99;100.00;99797.69;5121354;27;20049;-83
2022/02/05 10:02:21;;;;;;;5.63;2.58;;;;;;;4.07;98.03;99795.19;5118205;27;20332;-84
2022/02/05 10:05:01;;;;;;;10.48;2.58;;;;;;;4.18;97.20;99805.06;5115321;27;20058;-83
2022/02/05 10:07:29;;;;;;;7.63;2.15;;;;;;;4.27;94.54;99810.66;5116777;27;20047;-84
2022/02/05 10:10:14;;;;;;;10.90;2.35;;;;;;;4.48;95.20;99806.16;5130500;27;20047;-84
2022/02/05 10:13:08;;;;;;;4.43;2.15;;;;;;;4.29;92.95;99806.00;5132909;27;20054;-83
2022/02/05 10:15:40;;;;;;;6.35;2.47;;;;;;;4.42;91.50;99810.22;5119788;27;20051;-84
2022/02/05 10:18:08;;;;;;;9.15;2.05;;;;;;;4.28;92.22;99793.53;5132947;27;20043;-84
2022/02/05 10:20:59;;;;;;;;;;;;;;;;;;;;;
2022/02/05 10:23:37;;;;;;;4.03;1.52;;;;;;;4.41;90.95;99808.53;5116445;27;20098;-84
2022/02/05 10:26:04;;;;;;;8.90;2.45;;;;;;;4.49;89.49;99818.63;5128691;27;20070;-85
2022/02/05 10:28:32;;;;;;;3.45;1.30;;;;;;;4.56;88.45;99814.44;5128728;27;20126;-84
2022/02/05 10:31:01;;;;;;;7.63;1.98;;;;;;;4.59;87.10;99822.25;5132645;27;20481;-85
2022/02/05 10:34:22;;;;;;;;;;;;;;;;;;;;;
2022/02/05 10:43:36;;;;;;;2.95;1.48;;;;;;;4.74;85.54;99813.84;5027841;28;20571;-83
2022/02/05 10:46:08;;;;;;;6.38;1.20;;;;;;;4.73;83.73;99806.75;5117982;27;21632;-83
2022/02/05 10:48:43;;;;;;;4.40;1.50;;;;;;;4.88;84.57;99808.13;5132771;27;20066;-84
2022/02/05 10:51:10;;;;;;;3.85;1.30;;;;;;;4.98;82.98;99821.66;5133302;27;20057;-84
2022/02/05 10:53:41;;;;;;;4.20;1.38;;;;;;;4.90;82.79;99805.31;5124818;27;20474;-84
2022/02/05 10:56:29;;;;;;;4.97;1.38;;;;;;;5.02;79.43;99828.47;5115229;27;20086;-84
2022/02/05 10:59:17;;;;;;;3.88;1.20;;;;;;;4.71;79.14;99814.97;5118623;27;20074;-83
2022/02/05 11:07:26;;;;;;;6.35;1.58;;;;;;;4.76;79.44;99819.97;5120748;27;20046;-84
2022/02/05 11:09:56;;;;;;;7.03;1.63;;;;;;;4.81;78.52;99822.25;5133443;27;20050;-84
2022/02/05 11:18:09;;;;;;;5.88;2.15;;;;;;;4.90;78.30;99814.22;5130768;27;20401;-84
2022/02/05 11:20:38;;;;;;;3.30;1.05;;;;;;;4.92;78.13;99814.09;5128511;27;20043;-84
2022/02/05 11:23:23;;;;;;;6.43;1.45;;;;;;;4.93;77.34;99813.97;5131216;27;20095;-83
2022/02/05 11:25:55;;;;;;;6.32;1.50;;;;;;;5.04;77.20;99817.56;5119993;27;20061;-84
2022/02/05 11:28:45;;;;;;;3.95;1.02;;;;;;;5.12;76.77;99804.31;5130817;27;20435;-84
2022/02/05 11:31:16;;;;;;;4.78;1.38;;;;;;;5.09;77.72;99805.41;5132209;27;20051;-84
2022/02/05 11:33:43;;;;;;;4.38;1.00;;;;;;;5.09;76.08;99813.50;5131571;27;20059;-85
2022/02/05 11:39:01;;;;;;;2.58;1.00;;;;;;;5.19;76.29;99813.53;5124940;27;20070;-84
2022/02/05 11:41:29;;;;;;;;;;;;;;;4.99;72.88;99809.88;5117994;28;20497;-84
2022/02/05 11:44:24;;;;;;;4.63;1.30;;;;;;;4.87;74.16;99805.56;5120542;28;20010;-84
2022/02/05 11:47:40;;;;;;;5.20;1.02;;;;;;;4.94;74.71;99804.91;5093416;28;20047;-85
2022/02/05 11:50:30;;;;;;;5.15;1.05;;;;;;;4.85;73.79;99776.06;5131949;28;20511;-85
2022/02/05 11:53:01;;;;;;;4.55;0.93;;;;;;;4.85;72.23;99792.22;5119933;28;20455;-84
2022/02/05 11:55:38;;;;;;;2.90;1.20;;;;;;;4.89;71.73;99779.34;5123140;28;20043;-84
2022/02/05 11:58:08;;;;;;;5.15;1.67;;;;;;;4.89;71.23;99782.91;5120179;28;20051;-84
2022/02/05 12:01:20;;;;;;;2.08;1.25;;;;;;;4.99;72.55;99792.88;5127160;28;20047;-84
2022/02/05 12:03:49;;;;;;;2.60;0.98;;;;;;;4.95;71.19;99786.88;5125179;28;20051;-85
2022/02/05 12:06:17;;;;;;;5.57;1.25;;;;;;;4.91;72.63;99782.78;5130735;28;20047;-85
2022/02/05 12:08:49;;;;;;;9.85;1.13;;;;;;;5.00;71.60;99808.03;5132142;28;20485;-83
2022/02/05 12:11:26;;;;;;;5.05;1.17;;;;;;;5.09;71.04;99788.41;5132976;28;20048;-83
2022/02/05 12:14:20;;;;;;;3.75;0.98;;;;;;;5.06;72.44;99781.44;5131912;28;20478;-83
2022/02/05 12:17:13;;;;;;;2.08;0.80;;;;;;;5.21;71.21;99771.13;5131114;28;20104;-83
2022/02/05 12:19:58;;;;;;;2.20;1.05;;;;;;;5.43;70.53;99783.53;5126521;28;20103;-86
2022/02/05 12:22:59;;;;;;;6.47;1.20;;;;;;;5.68;69.68;99754.38;5132626;28;20051;-83
2022/02/05 12:25:26;;;;;;;7.90;2.33;;;;;;;5.92;67.75;99769.34;5132690;28;20402;-83
2022/02/05 12:27:56;;;;;;;5.93;1.08;;;;;;;5.94;67.14;99753.84;5133035;28;20047;-83
2022/02/05 12:30:40;;;;;;;;;;;;;;;6.08;66.68;99771.50;5128203;27;20126;-84
2022/02/05 12:33:17;;;;;;;7.53;1.08;;;;;;;6.32;67.80;99763.84;5136711;27;19919;-83
2022/02/05 12:35:52;;;;;;;4.00;1.23;;;;;;;6.31;66.22;99775.63;5136189;27;20071;-83
2022/02/05 12:38:22;;;;;;;6.35;1.00;;;;;;;6.03;66.68;99769.22;5118300;27;20039;-84
2022/02/05 12:40:51;;;;;;;5.68;1.50;;;;;;;5.87;67.62;99756.25;5135254;27;20051;-83
2022/02/05 12:43:49;;;;;;;5.05;1.10;;;;;;;5.92;66.29;99761.25;5129511;27;20047;-83
2022/02/05 12:46:16;;;;;;;3.92;1.15;;;;;;;5.84;68.09;99751.13;5130899;27;20070;-84
2022/02/05 12:48:47;;;;;;;7.95;2.15;;;;;;;5.74;69.71;99756.53;5136358;27;20134;-84
2022/02/05 12:51:15;;;;;;;4.75;1.63;;;;;;;5.55;71.79;99748.38;5136321;27;20100;-84
2022/02/05 12:53:43;;;;;;;6.80;1.65;;;;;;;5.56;70.63;99756.34;5135576;27;20082;-84
2022/02/05 12:56:13;;;;;;;7.00;1.80;;;;;;;5.46;69.66;99752.75;5136524;27;20138;-83
2022/02/05 12:58:54;;;;;;;8.63;2.00;;;;;;;5.49;70.60;99757.88;5135918;27;20141;-83
2022/02/05 13:01:21;;;;;;;8.60;2.75;;;;;;;5.42;71.23;99762.09;5133104;27;20051;-83
2022/02/05 13:03:47;;;;;;;6.05;1.60;;;;;;;5.57;71.03;99755.38;5135571;27;20055;-83
2022/02/05 13:06:21;;;;;;;3.53;1.05;;;;;;;5.65;69.58;99736.63;5135836;27;20049;-85
2022/02/05 13:08:51;;;;;;;11.82;1.30;;;;;;;5.97;70.06;99749.03;5118089;27;20479;-83
2022/02/05 13:11:25;;;;;;;;;;;;;;;6.06;69.15;99744.66;5129401;27;20452;-83
2022/02/05 13:13:55;;;;;;;7.95;1.13;;;;;;;6.36;68.39;99745.50;5121200;27;20018;-84
2022/02/05 13:16:23;;;;;;;4.43;1.23;;;;;;;6.59;70.18;99737.91;5115106;28;20047;-84
2022/02/05 13:27:46;;;;;;;4.20;1.23;;;;;;;6.60;66.91;99730.69;5129177;27;20043;-83
2022/02/05 13:36:06;;;;;;;2.28;1.10;;;;;;;6.54;68.68;99716.75;5133637;27;20429;-83
2022/02/05 13:38:40;;;;;;;2.20;1.15;;;;;;;6.40;67.20;99694.75;5126867;27;20409;-84
2022/02/05 13:41:09;;;;;;;6.25;1.00;;;;;;;6.66;69.37;99722.00;5126219;27;20043;-83
2022/02/05 13:43:42;;;;;;;8.75;1.08;;;;;;;6.61;65.59;99713.47;5129475;27;20046;-84
2022/02/05 13:46:13;;;;;;;4.47;0.90;;;;;;;6.53;67.15;99722.28;5128375;27;20383;-83
2022/02/05 13:48:40;;;;;;;11.07;1.30;;;;;;;6.42;66.71;99700.88;5132306;27;20054;-83
2022/02/05 13:51:07;;;;;;;3.45;0.98;;;;;;;6.41;66.56;99728.88;5133177;27;20075;-86
2022/02/05 13:53:35;;;;;;;7.60;1.40;;;;;;;6.33;65.30;99707.97;5135088;27;20069;-85
2022/02/05 13:56:08;;;;;;;10.35;1.35;;;;;;;6.35;66.50;99714.09;5134149;27;20047;-84
2022/02/05 13:58:39;;;;;;;3.40;0.93;;;;;;;6.44;66.89;99720.47;5135100;27;20055;-88
2022/02/05 14:01:06;;;;;;;5.38;1.25;;;;;;;6.64;67.74;99726.69;5131690;27;20051;-85
2022/02/05 14:03:34;;;;;;;3.92;1.00;;;;;;;6.52;65.96;99718.75;5133741;27;20051;-86
2022/02/05 14:06:06;;;;;;;3.75;0.90;;;;;;;6.60;67.07;99725.28;5129878;27;20050;-87
2022/02/05 14:08:34;;;;;;;6.40;1.10;;;;;;;6.72;66.43;99726.81;5133991;27;20055;-87
2022/02/05 14:11:07;;;;;;;4.28;1.05;;;;;;;6.58;66.20;99709.22;5134595;27;20482;-87
2022/02/05 14:13:39;;;;;;;2.63;1.10;;;;;;;6.66;65.78;99717.44;5131111;27;20044;-87
2022/02/05 14:16:12;;;;;;;4.60;1.00;;;;;;;6.65;65.62;99713.03;5132105;27;20046;-86
2022/02/05 14:18:58;;;;;;;7.40;1.27;;;;;;;6.46;65.41;99718.47;5124658;27;20126;-86
2022/02/05 14:21:34;;;;;;;12.75;1.20;;;;;;;6.53;65.82;99717.75;5134866;27;20408;-86
2022/02/05 14:24:02;;;;;;;8.27;1.20;;;;;;;6.36;65.55;99694.19;5134757;27;20379;-86
2022/02/05 14:26:32;;;;;;;1.25;0.80;;;;;;;6.44;65.45;99701.56;5122804;27;20047;-87
2022/02/05 14:29:03;;;;;;;3.20;1.77;;;;;;;6.46;65.15;99696.84;5114253;27;20093;-87
2022/02/05 14:31:33;;;;;;;4.40;1.10;;;;;;;6.45;63.64;99714.94;5114679;27;20056;-86
2022/02/05 14:34:18;;;;;;;6.82;1.00;;;;;;;6.34;64.75;99715.09;5131421;27;20138;-87
2022/02/05 14:42:31;;;;;;;5.85;1.38;;;;;;;5.99;64.13;99721.91;5133089;27;20097;-86
2022/02/05 14:45:02;;;;;;;5.93;1.38;;;;;;;5.91;66.34;99729.84;5131571;27;20043;-87
2022/02/05 14:47:29;;;;;;;9.18;4.97;;;;;;;5.88;68.08;99720.19;5134719;27;20703;-87
2022/02/05 14:49:58;;;;;;;4.65;1.05;;;;;;;5.99;66.04;99709.28;5134181;27;20131;-87
2022/02/05 14:52:25;;;;;;;2.33;0.98;;;;;;;6.03;64.12;99686.41;5133880;27;20055;-87
2022/02/05 14:54:52;;;;;;;2.17;0.68;;;;;;;6.13;64.83;99710.69;5131692;27;20179;-87
2022/02/05 14:57:19;;;;;;;5.32;1.13;;;;;;;6.07;65.44;99680.72;5114075;27;20601;-87
2022/02/05 14:59:50;;;;;;;8.55;1.30;;;;;;;6.15;64.91;99705.16;5114002;28;20105;-86
2022/02/05 15:02:21;;;;;;;4.30;1.20;;;;;;;6.15;65.20;99694.34;5114212;27;20132;-86
2022/02/05 15:04:48;;;;;;;3.78;1.05;;;;;;;6.23;65.29;99715.25;5130404;27;20474;-87
2022/02/05 15:07:18;;;;;;;3.30;1.25;;;;;;;6.23;65.03;99697.19;5133827;27;20490;-87
2022/02/05 15:09:47;;;;;;;2.25;0.75;;;;;;;6.20;64.86;99698.34;5134135;27;20070;-86
2022/02/05 15:12:14;;;;;;;4.07;1.35;;;;;;;6.15;64.65;99689.81;5134137;27;20051;-86
2022/02/05 15:14:41;;;;;;;8.80;1.65;;;;;;;6.32;64.62;99701.75;5133689;27;20101;-86
2022/02/05 15:17:08;;;;;;;3.72;1.17;;;;;;;6.16;66.13;99683.41;5128593;27;20047;-85
2022/02/05 15:19:45;;;;;;;4.30;1.30;;;;;;;6.07;64.91;99692.38;5131583;27;20152;-87
2022/02/05 15:22:12;;;;;;;5.63;1.08;;;;;;;6.03;65.96;99693.66;5132882;27;20043;-86
2022/02/05 15:24:41;;;;;;;5.38;0.90;;;;;;;5.96;64.72;99696.06;5133594;27;20445;-86
2022/02/05 15:27:08;;;;;;;6.07;1.23;;;;;;;6.03;66.74;99707.16;5132291;27;20062;-85
2022/02/05 15:29:38;;;;;;;3.55;1.00;;;;;;;5.97;66.01;99711.25;5131576;27;20486;-87
2022/02/05 15:32:05;;;;;;;3.80;1.33;;;;;;;5.91;66.58;99708.25;5125956;27;20472;-86
2022/02/05 15:34:34;;;;;;;5.03;0.80;;;;;;;5.79;66.70;99694.03;5131212;27;20042;-86
2022/02/05 15:37:18;;;;;;;1.17;0.90;;;;;;;5.82;65.29;99707.25;5113299;28;20044;-86
2022/02/05 15:39:54;;;;;;;4.18;1.60;;;;;;;5.72;65.98;99696.47;5125426;27;20062;-86
2022/02/05 15:45:06;;;;;;;4.32;0.88;;;;;;;5.50;68.77;99690.31;5131595;28;20049;-86
2022/02/05 15:47:40;;;;;;;2.40;0.95;;;;;;;5.51;69.62;99701.97;5114866;28;20191;-87
2022/02/05 15:50:12;;;;;;;8.05;1.25;;;;;;;5.49;69.66;99715.59;5112875;28;20051;-86
2022/02/05 15:52:44;;;;;;;5.07;0.90;;;;;;;5.39;71.08;99703.94;5112822;28;20050;-86
2022/02/05 15:55:14;;;;;;;3.45;1.17;;;;;;;5.27;70.71;99686.19;5121332;27;20063;-87
2022/02/05 15:57:59;;;;;;;4.07;0.98;;;;;;;5.16;72.06;99689.81;5130407;27;20051;-86
2022/02/05 16:00:31;;;;;;;7.10;1.08;;;;;;;5.12;72.75;99689.25;5133171;28;20053;-86
2022/02/05 16:03:07;;;;;;;2.53;1.15;;;;;;;5.21;72.13;99709.13;5132775;28;20049;-86
2022/02/05 16:05:43;;;;;;;3.13;1.00;;;;;;;5.12;72.55;99713.50;5134284;27;20117;-86
2022/02/05 16:08:24;;;;;;;6.60;1.38;;;;;;;5.09;72.18;99723.72;5136017;27;20047;-87
2022/02/05 16:10:51;;;;;;;5.38;1.52;;;;;;;4.86;72.97;99699.63;5136373;27;20107;-86
2022/02/05 16:13:18;;;;;;;6.30;1.42;;;;;;;4.83;72.74;99696.34;5130342;27;20074;-85
2022/02/05 16:15:44;;;;;;;6.63;2.70;;;;;;;4.78;71.30;99694.91;5136977;27;20482;-87
2022/02/05 16:18:11;;;;;;;5.47;2.78;;;;;;;4.75;72.20;99705.97;5135307;27;20111;-87
2022/02/05 16:20:49;;;;;;;9.40;2.53;;;;;;;4.70;72.20;99702.00;5131357;27;20437;-87
2022/02/05 16:23:33;;;;;;;4.65;1.85;;;;;;;4.68;73.52;99714.72;5136800;27;20112;-86
2022/02/05 16:26:02;;;;;;;5.25;2.15;;;;;;;4.72;73.05;99743.09;5121696;27;20135;-87
2022/02/05 16:28:38;;;;;;;7.25;2.67;;;;;;;4.54;73.95;99721.31;5127934;27;20470;-86
2022/02/05 16:31:08;;;;;;;8.25;3.13;;;;;;;4.54;73.77;99715.91;5136952;27;20047;-87
2022/02/05 16:33:38;;;;;;;11.13;5.47;;;;;;;4.41;74.29;99714.28;5136298;27;20105;-87
2022/02/05 16:36:11;;;;;;;8.85;3.38;;;;;;;4.47;75.64;99726.38;5135503;27;20058;-86
2022/02/05 16:38:43;;;;;;;10.07;3.63;;;;;;;4.32;76.22;99724.97;5127510;27;20047;-87
2022/02/05 16:41:15;;;;;;;11.23;5.30;;;;;;;4.24;76.61;99718.41;5117997;27;20051;-86
2022/02/05 16:43:46;;;;;;;7.85;4.15;;;;;;;4.25;77.99;99714.75;5127058;27;20589;-87
2022/02/05 16:46:20;;;;;;;6.85;2.80;;;;;;;4.09;78.45;99698.19;5129290;27;20421;-86
2022/02/05 16:48:47;;;;;;;5.88;1.77;;;;;;;4.10;79.04;99707.13;5136976;27;20051;-87
2022/02/05 16:51:15;;;;;;;4.55;1.27;;;;;;;4.17;79.06;99713.69;5121249;27;20191;-87
2022/02/05 16:53:50;;;;;;;8.15;1.70;;;;;;;3.96;79.69;99711.84;5125480;27;20047;-87
2022/02/05 16:56:17;;;;;;;4.20;1.58;;;;;;;3.77;82.22;99717.91;5150758;27;20066;-85
2022/02/05 16:58:44;;;;;;;8.63;2.15;;;;;;;3.77;82.76;99735.88;5128509;27;20049;-87
2022/02/05 17:01:11;;;;;;;5.95;2.13;;;;;;;3.68;82.99;99710.59;5145335;27;20050;-84
2022/02/05 17:03:38;;;;;;;8.35;2.42;;;;;;;3.82;83.27;99741.72;5132159;27;20081;-88
2022/02/05 17:06:05;;;;;;;25.25;10.27;;;;;;;3.78;83.78;99716.06;5124841;27;20067;-86
2022/02/05 17:08:36;;;;;;;39.20;17.38;;;;;;;3.93;83.58;99725.56;5123934;27;20061;-86
2022/02/05 17:11:13;;;;;;;9.13;4.00;;;;;;;3.94;83.70;99742.53;5131995;27;20494;-86
2022/02/05 17:13:41;;;;;;;4.35;2.03;;;;;;;3.75;83.48;99716.31;5122504;27;20050;-87
2022/02/05 17:16:08;;;;;;;5.75;2.92;;;;;;;3.79;83.22;99721.28;5131131;27;20046;-87
2022/02/05 17:18:37;;;;;;;7.78;2.53;;;;;;;3.92;84.10;99733.75;5131276;27;20043;-86
2022/02/05 17:21:04;;;;;;;7.50;2.38;;;;;;;3.86;84.25;99718.97;5135449;27;20043;-87
2022/02/05 17:23:35;;;;;;;3.08;2.00;;;;;;;3.87;85.04;99726.91;5134579;27;20399;-87
2022/02/05 17:26:07;;;;;;;11.00;3.03;;;;;;;3.78;84.91;99725.00;5116559;27;20047;-87
2022/02/05 17:28:36;;;;;;;9.52;3.33;;;;;;;3.75;84.51;99716.31;5116602;27;20052;-87
2022/02/05 17:31:09;;;;;;;6.53;2.30;;;;;;;3.69;84.91;99718.53;5120601;27;20042;-87
2022/02/05 17:33:39;;;;;;;7.68;3.17;;;;;;;3.70;86.65;99735.50;5131874;27;20047;-87
2022/02/05 17:36:16;;;;;;;;;;;;;;;3.62;87.12;99746.06;5136563;27;20402;-87
2022/02/05 17:38:47;;;;;;;6.32;2.50;;;;;;;3.50;86.64;99737.16;5136124;27;19919;-87
2022/02/05 17:41:22;;;;;;;7.60;3.03;;;;;;;3.51;87.08;99737.03;5133507;27;20046;-87
2022/02/05 17:43:51;;;;;;;31.48;11.43;;;;;;;3.56;87.17;99750.09;5114647;28;20156;-87
2022/02/05 17:46:26;;;;;;;17.33;6.38;;;;;;;3.44;88.18;99735.81;5124410;27;20043;-86
2022/02/05 17:49:08;;;;;;;12.00;3.92;;;;;;;3.35;89.61;99750.88;5133698;27;20055;-87
2022/02/05 17:51:34;;;;;;;11.30;4.55;;;;;;;3.30;90.39;99754.94;5115190;27;20054;-87
2022/02/05 17:54:08;;;;;;;5.75;3.55;;;;;;;3.12;90.78;99733.91;5121900;27;20051;-86
2022/02/05 17:56:42;;;;;;;8.52;2.95;;;;;;;3.16;91.53;99739.88;5121599;27;20139;-87
2022/02/05 17:59:18;;;;;;;5.28;2.85;;;;;;;3.08;90.99;99745.88;5126233;27;20043;-87
2022/02/05 18:02:01;;;;;;;5.20;2.63;;;;;;;3.15;91.82;99760.53;5120514;27;20084;-86
2022/02/05 18:04:32;;;;;;;7.82;2.78;;;;;;;3.00;92.67;99738.44;5127737;27;20080;-87
2022/02/05 18:07:07;;;;;;;6.63;2.92;;;;;;;3.13;92.93;99751.75;5133928;27;20053;-87
2022/02/05 18:09:58;;;;;;;11.23;3.15;;;;;;;3.07;94.00;99746.00;5129394;27;20486;-87
2022/02/05 18:13:37;;;;;;;8.38;3.53;;;;;;;3.18;94.27;99754.91;5118140;27;20047;-86
2022/02/05 18:16:07;;;;;;;11.10;4.60;;;;;;;3.07;94.40;99741.50;5074067;27;20047;-87
2022/02/05 18:18:37;;;;;;;9.70;4.05;;;;;;;3.13;92.14;99749.06;5125213;27;20130;-87
2022/02/05 18:21:04;;;;;;;11.75;4.15;;;;;;;3.29;92.68;99755.91;5133961;27;20403;-86
2022/02/05 18:23:43;;;;;;;10.25;4.38;;;;;;;3.30;93.12;99749.53;5134723;27;20417;-87
2022/02/05 18:26:23;;;;;;;8.55;3.80;;;;;;;3.25;92.25;99735.59;5131917;27;20050;-87
2022/02/05 18:28:52;;;;;;;9.27;4.65;;;;;;;3.38;92.88;99752.44;5133263;27;20071;-87
2022/02/05 18:31:28;;;;;;;10.63;5.60;;;;;;;3.47;90.87;99740.94;5126538;27;20089;-86
2022/02/05 18:34:23;;;;;;;14.77;6.47;;;;;;;3.44;90.88;99741.19;5133467;27;20145;-87
2022/02/05 18:37:14;;;;;;;17.88;6.40;;;;;;;3.46;91.79;99751.81;5129098;27;20133;-86
2022/02/05 18:39:45;;;;;;;43.47;16.95;;;;;;;3.35;90.99;99733.88;5134350;27;20055;-89
2022/02/05 18:42:18;;;;;;;35.47;12.88;;;;;;;3.33;91.01;99736.69;5134904;27;20051;-86
2022/02/05 18:47:59;;;;;;;8.52;3.10;;;;;;;3.61;88.15;99753.25;5124064;27;20501;-86
2022/02/05 18:50:27;;;;;;;6.10;2.58;;;;;;;3.52;87.72;99735.19;5117291;27;20043;-85
2022/02/05 18:52:54;;;;;;;8.90;2.42;;;;;;;3.67;85.49;99752.78;5137341;27;20057;-86
2022/02/05 18:55:24;;;;;;;7.90;2.58;;;;;;;3.59;87.34;99727.50;5127777;27;20104;-86
2022/02/05 18:57:50;;;;;;;11.20;2.50;;;;;;;3.61;86.32;99729.06;5113510;28;20055;-85
2022/02/05 19:00:29;;;;;;;7.38;2.50;;;;;;;3.63;86.05;99732.50;5130780;27;20055;-85
2022/02/05 19:03:18;;;;;;;6.65;2.60;;;;;;;3.49;86.93;99714.81;5133324;27;20129;-85
2022/02/05 19:11:46;;;;;;;6.50;2.60;;;;;;;3.41;87.07;99736.06;5133028;27;20154;-86
2022/02/05 19:15:10;;;;;;;12.18;3.05;;;;;;;3.42;86.69;99734.22;5131748;27;20047;-85
2022/02/05 19:20:40;;;;;;;6.82;3.10;;;;;;;3.23;86.97;99722.28;5112680;28;20120;-85
2022/02/05 19:23:12;;;;;;;7.05;3.15;;;;;;;3.15;89.08;99733.66;5119160;27;20047;-86
2022/02/05 19:25:58;;;;;;;8.25;2.92;;;;;;;3.09;89.80;99734.16;5130641;27;20573;-86
2022/02/05 19:28:27;;;;;;;4.75;2.90;;;;;;;2.99;89.20;99736.72;5125726;27;20053;-86
2022/02/05 19:31:25;;;;;;;7.43;2.55;;;;;;;2.93;90.72;99733.69;5113101;27;20051;-86
2022/02/05 19:33:53;;;;;;;16.45;6.72;;;;;;;3.00;91.09;99729.53;5131893;27;20079;-86
2022/02/05 19:36:24;;;;;;;7.88;2.53;;;;;;;3.05;92.66;99737.22;5128340;27;20054;-85
2022/02/05 19:39:21;;;;;;;8.00;3.35;;;;;;;2.87;93.85;99726.13;5125092;27;20379;-86
2022/02/05 19:41:51;;;;;;;5.00;2.80;;;;;;;2.78;94.88;99736.59;5129919;27;20050;-86
2022/02/05 19:44:21;;;;;;;9.20;3.55;;;;;;;2.70;95.92;99732.81;5132366;28;20096;-87
2022/02/05 19:46:53;;;;;;;;;;;;;;;2.76;94.62;99733.19;5134025;28;20047;-86
2022/02/05 19:49:47;;;;;;;5.53;2.83;;;;;;;2.53;97.11;99739.50;5133156;28;20072;-87
2022/02/05 19:52:16;;;;;;;7.00;2.72;;;;;;;2.60;94.34;99709.34;5132434;28;20748;-87
2022/02/05 19:55:41;;;;;;;5.70;2.40;;;;;;;2.70;93.60;99733.66;5121152;28;20074;-86
2022/02/05 19:58:29;;;;;;;4.32;2.03;;;;;;;2.61;91.66;99718.28;5117364;27;20044;-86
2022/02/05 20:00:58;;;;;;;6.22;2.47;;;;;;;2.55;93.01;99721.47;5120880;28;20067;-86
2022/02/05 20:03:28;;;;;;;26.45;10.75;;;;;;;2.69;92.67;99749.91;5131906;28;20049;-86
2022/02/05 20:06:01;;;;;;;;;;;;;;;2.67;92.39;99741.97;5133011;28;20054;-86
2022/02/05 20:08:31;;;;;;;10.40;3.83;;;;;;;2.63;91.66;99735.13;5132231;28;19923;-86
2022/02/05 20:11:01;;;;;;;6.28;2.60;;;;;;;2.57;92.22;99730.22;5128680;28;20054;-86
2022/02/05 20:13:29;;;;;;;5.57;2.28;;;;;;;2.51;93.22;99730.72;5136103;27;20043;-85
2022/02/05 20:15:59;;;;;;;9.80;2.35;;;;;;;2.32;93.75;99726.78;5119819;28;20043;-86
2022/02/05 20:18:28;;;;;;;6.40;2.35;;;;;;;2.32;94.27;99733.97;5112660;28;20504;-86
2022/02/05 20:20:56;;;;;;;9.32;2.28;;;;;;;2.31;94.31;99722.38;5111635;28;20055;-86
2022/02/05 20:23:44;;;;;;;8.48;2.67;;;;;;;2.35;92.65;99726.53;5112194;28;20047;-87
2022/02/05 20:26:17;;;;;;;9.98;2.72;;;;;;;2.32;92.82;99725.91;5111728;28;20551;-86
2022/02/05 20:28:44;;;;;;;4.07;2.58;;;;;;;2.38;93.84;99741.53;5129141;27;20055;-87
2022/02/05 20:31:11;;;;;;;7.63;2.63;;;;;;;2.24;94.55;99742.59;5126022;28;20087;-87
2022/02/05 20:33:39;;;;;;;19.33;8.77;;;;;;;2.25;94.11;99720.16;5122596;28;20142;-87
2022/02/05 20:36:10;;;;;;;8.15;4.45;;;;;;;2.07;95.79;99738.53;5112564;28;20051;-87
2022/02/05 20:38:38;;;;;;;4.68;2.58;;;;;;;2.09;94.98;99710.63;5112174;28;20044;-87
2022/02/05 20:41:05;;;;;;;5.68;2.53;;;;;;;2.17;96.23;99720.75;5112124;28;20542;-88
2022/02/05 20:43:34;;;;;;;10.20;3.03;;;;;;;2.10;96.88;99739.13;5123609;28;20134;-88
2022/02/05 20:46:01;;;;;;;13.80;4.70;;;;;;;2.10;96.63;99735.59;5132120;28;20069;-88
2022/02/05 20:48:29;;;;;;;7.82;4.15;;;;;;;1.90;97.30;99705.78;5132137;28;20051;-87
2022/02/05 20:51:03;;;;;;;8.55;4.20;;;;;;;1.89;97.73;99720.16;5117681;28;20055;-89
